sensor_id;sensor_type;location;lat;lon;timestamp;P1;durP1;ratioP1;P2;durP2;ratioP2
7545;SDS011;3814;51.454;12.616;2024-03-08T00:02:23;25.88;;;12.80;;
7545;SDS011;3814;51.454;12.616;2024-03-08T00:04:49;25.57;;;13.13;;
7545;SDS011;3814;51.454;12.616;2024-03-08T00:07:14;28.90;;;13.63;;
7545;SDS011;3814;51.454;12.616;2024-03-08T00:09:39;28.53;;;14.33;;
7545;SDS011;3814;51.454;12.616;2024-03-08T00:12:05;27.13;;;12.70;;
7545;SDS011;3814;51.454;12.616;2024-03-08T00:14:31;28.58;;;12.60;;
7545;SDS011;3814;51.454;12.616;2024-03-08T00:16:56;27.93;;;12.80;;
7545;SDS011;3814;51.454;12.616;2024-03-08T00:19:21;25.10;;;12.77;;
7545;SDS011;3814;51.454;12.616;2024-03-08T00:21:47;26.23;;;12.87;;
7545;SDS011;3814;51.454;12.616;2024-03-08T00:24:12;27.83;;;13.20;;
7545;SDS011;3814;51.454;12.616;2024-03-08T00:26:37;26.67;;;13.10;;
7545;SDS011;3814;51.454;12.616;2024-03-08T00:29:02;25.73;;;13.13;;
7545;SDS011;3814;51.454;12.616;2024-03-08T00:31:28;26.60;;;13.38;;
7545;SDS011;3814;51.454;12.616;2024-03-08T00:33:55;27.42;;;12.90;;
7545;SDS011;3814;51.454;12.616;2024-03-08T00:36:21;26.90;;;12.88;;
7545;SDS011;3814;51.454;12.616;2024-03-08T00:38:47;24.50;;;12.47;;
7545;SDS011;3814;51.454;12.616;2024-03-08T00:41:12;27.75;;;13.13;;
7545;SDS011;3814;51.454;12.616;2024-03-08T00:43:38;25.47;;;13.13;;
7545;SDS011;3814;51.454;12.616;2024-03-08T00:46:03;26.40;;;12.80;;
7545;SDS011;3814;51.454;12.616;2024-03-08T00:48:28;23.73;;;11.57;;
7545;SDS011;3814;51.454;12.616;2024-03-08T00:50:53;28.27;;;12.87;;
7545;SDS011;3814;51.454;12.616;2024-03-08T00:53:19;25.60;;;12.57;;
7545;SDS011;3814;51.454;12.616;2024-03-08T00:55:44;25.57;;;12.47;;
7545;SDS011;3814;51.454;12.616;2024-03-08T00:58:12;26.52;;;12.88;;
7545;SDS011;3814;51.454;12.616;2024-03-08T01:00:37;27.63;;;13.00;;
7545;SDS011;3814;51.454;12.616;2024-03-08T01:03:03;31.10;;;12.60;;
7545;SDS011;3814;51.454;12.616;2024-03-08T01:05:29;28.85;;;13.60;;
7545;SDS011;3814;51.454;12.616;2024-03-08T01:07:55;25.07;;;12.60;;
7545;SDS011;3814;51.454;12.616;2024-03-08T01:10:20;28.97;;;13.67;;
7545;SDS011;3814;51.454;12.616;2024-03-08T01:12:45;23.83;;;12.73;;
7545;SDS011;3814;51.454;12.616;2024-03-08T01:15:10;29.87;;;14.13;;
7545;SDS011;3814;51.454;12.616;2024-03-08T01:17:36;26.17;;;11.85;;
7545;SDS011;3814;51.454;12.616;2024-03-08T01:20:02;25.45;;;11.80;;
7545;SDS011;3814;51.454;12.616;2024-03-08T01:22:28;27.10;;;12.13;;
7545;SDS011;3814;51.454;12.616;2024-03-08T01:24:55;24.33;;;12.68;;
7545;SDS011;3814;51.454;12.616;2024-03-08T01:27:20;28.08;;;12.95;;
7545;SDS011;3814;51.454;12.616;2024-03-08T01:29:46;27.55;;;12.15;;
7545;SDS011;3814;51.454;12.616;2024-03-08T01:32:12;26.53;;;11.57;;
7545;SDS011;3814;51.454;12.616;2024-03-08T01:34:37;21.73;;;11.70;;
7545;SDS011;3814;51.454;12.616;2024-03-08T01:37:02;24.33;;;11.53;;
7545;SDS011;3814;51.454;12.616;2024-03-08T01:39:28;24.93;;;11.13;;
7545;SDS011;3814;51.454;12.616;2024-03-08T01:41:53;23.13;;;12.20;;
7545;SDS011;3814;51.454;12.616;2024-03-08T01:44:19;22.73;;;10.98;;
7545;SDS011;3814;51.454;12.616;2024-03-08T01:46:44;29.55;;;13.05;;
7545;SDS011;3814;51.454;12.616;2024-03-08T01:49:10;26.73;;;12.48;;
7545;SDS011;3814;51.454;12.616;2024-03-08T01:51:36;22.15;;;11.07;;
7545;SDS011;3814;51.454;12.616;2024-03-08T01:54:01;24.95;;;11.73;;
7545;SDS011;3814;51.454;12.616;2024-03-08T01:56:28;23.60;;;12.32;;
7545;SDS011;3814;51.454;12.616;2024-03-08T01:58:54;24.10;;;10.68;;
7545;SDS011;3814;51.454;12.616;2024-03-08T02:01:19;26.33;;;11.80;;
7545;SDS011;3814;51.454;12.616;2024-03-08T02:03:45;26.23;;;12.70;;
7545;SDS011;3814;51.454;12.616;2024-03-08T02:06:11;26.15;;;11.68;;
7545;SDS011;3814;51.454;12.616;2024-03-08T02:08:38;24.25;;;11.65;;
7545;SDS011;3814;51.454;12.616;2024-03-08T02:11:03;23.97;;;11.40;;
7545;SDS011;3814;51.454;12.616;2024-03-08T02:13:29;24.60;;;12.10;;
7545;SDS011;3814;51.454;12.616;2024-03-08T02:15:55;28.55;;;12.75;;
7545;SDS011;3814;51.454;12.616;2024-03-08T02:18:21;23.17;;;11.70;;
7545;SDS011;3814;51.454;12.616;2024-03-08T02:20:48;24.65;;;12.23;;
7545;SDS011;3814;51.454;12.616;2024-03-08T02:23:17;27.35;;;11.57;;
7545;SDS011;3814;51.454;12.616;2024-03-08T02:25:43;24.73;;;10.90;;
7545;SDS011;3814;51.454;12.616;2024-03-08T02:28:09;23.73;;;11.83;;
7545;SDS011;3814;51.454;12.616;2024-03-08T02:30:35;21.10;;;11.02;;
7545;SDS011;3814;51.454;12.616;2024-03-08T02:33:01;22.55;;;10.70;;
7545;SDS011;3814;51.454;12.616;2024-03-08T02:35:27;22.90;;;11.40;;
7545;SDS011;3814;51.454;12.616;2024-03-08T02:37:52;24.95;;;12.05;;
7545;SDS011;3814;51.454;12.616;2024-03-08T02:40:18;23.57;;;11.60;;
7545;SDS011;3814;51.454;12.616;2024-03-08T02:42:43;26.70;;;12.90;;
7545;SDS011;3814;51.454;12.616;2024-03-08T02:45:08;24.93;;;12.17;;
7545;SDS011;3814;51.454;12.616;2024-03-08T02:47:35;23.40;;;12.48;;
7545;SDS011;3814;51.454;12.616;2024-03-08T02:50:00;25.17;;;11.85;;
7545;SDS011;3814;51.454;12.616;2024-03-08T02:52:26;22.90;;;11.02;;
7545;SDS011;3814;51.454;12.616;2024-03-08T02:54:51;28.60;;;11.97;;
7545;SDS011;3814;51.454;12.616;2024-03-08T02:57:17;24.40;;;13.13;;
7545;SDS011;3814;51.454;12.616;2024-03-08T02:59:43;27.17;;;12.13;;
7545;SDS011;3814;51.454;12.616;2024-03-08T03:02:08;25.90;;;11.67;;
7545;SDS011;3814;51.454;12.616;2024-03-08T03:04:35;25.85;;;11.70;;
7545;SDS011;3814;51.454;12.616;2024-03-08T03:07:00;22.40;;;11.45;;
7545;SDS011;3814;51.454;12.616;2024-03-08T03:09:26;25.70;;;11.87;;
7545;SDS011;3814;51.454;12.616;2024-03-08T03:11:53;24.85;;;11.45;;
7545;SDS011;3814;51.454;12.616;2024-03-08T03:14:20;27.75;;;12.25;;
7545;SDS011;3814;51.454;12.616;2024-03-08T03:16:48;23.02;;;11.77;;
7545;SDS011;3814;51.454;12.616;2024-03-08T03:19:14;24.20;;;10.90;;
7545;SDS011;3814;51.454;12.616;2024-03-08T03:21:40;25.40;;;12.20;;
7545;SDS011;3814;51.454;12.616;2024-03-08T03:24:08;23.85;;;11.48;;
7545;SDS011;3814;51.454;12.616;2024-03-08T03:26:35;24.15;;;12.18;;
7545;SDS011;3814;51.454;12.616;2024-03-08T03:29:03;27.23;;;12.10;;
7545;SDS011;3814;51.454;12.616;2024-03-08T03:31:30;24.10;;;11.32;;
7545;SDS011;3814;51.454;12.616;2024-03-08T03:33:56;26.77;;;11.88;;
7545;SDS011;3814;51.454;12.616;2024-03-08T03:36:26;27.65;;;12.90;;
7545;SDS011;3814;51.454;12.616;2024-03-08T03:38:52;29.27;;;12.20;;
7545;SDS011;3814;51.454;12.616;2024-03-08T03:41:29;24.05;;;11.43;;
7545;SDS011;3814;51.454;12.616;2024-03-08T03:43:54;27.83;;;12.60;;
7545;SDS011;3814;51.454;12.616;2024-03-08T03:46:19;23.07;;;11.93;;
7545;SDS011;3814;51.454;12.616;2024-03-08T03:48:46;29.10;;;11.77;;
7545;SDS011;3814;51.454;12.616;2024-03-08T03:51:12;24.48;;;12.27;;
7545;SDS011;3814;51.454;12.616;2024-03-08T03:53:37;23.98;;;12.32;;
7545;SDS011;3814;51.454;12.616;2024-03-08T03:56:02;28.43;;;12.00;;
7545;SDS011;3814;51.454;12.616;2024-03-08T03:58:31;22.80;;;11.25;;
7545;SDS011;3814;51.454;12.616;2024-03-08T04:00:57;25.57;;;13.00;;
7545;SDS011;3814;51.454;12.616;2024-03-08T04:03:22;22.60;;;11.90;;
7545;SDS011;3814;51.454;12.616;2024-03-08T04:05:47;27.17;;;12.33;;
7545;SDS011;3814;51.454;12.616;2024-03-08T04:08:13;22.03;;;11.07;;
7545;SDS011;3814;51.454;12.616;2024-03-08T04:10:38;26.23;;;11.90;;
7545;SDS011;3814;51.454;12.616;2024-03-08T04:13:03;29.20;;;12.83;;
7545;SDS011;3814;51.454;12.616;2024-03-08T04:15:28;25.73;;;11.90;;
7545;SDS011;3814;51.454;12.616;2024-03-08T04:17:54;27.70;;;12.63;;
7545;SDS011;3814;51.454;12.616;2024-03-08T04:20:19;22.63;;;12.38;;
7545;SDS011;3814;51.454;12.616;2024-03-08T04:22:46;27.90;;;12.82;;
7545;SDS011;3814;51.454;12.616;2024-03-08T04:25:14;26.80;;;11.73;;
7545;SDS011;3814;51.454;12.616;2024-03-08T04:27:39;25.80;;;12.17;;
7545;SDS011;3814;51.454;12.616;2024-03-08T04:30:05;26.35;;;11.77;;
7545;SDS011;3814;51.454;12.616;2024-03-08T04:32:34;27.00;;;13.05;;
7545;SDS011;3814;51.454;12.616;2024-03-08T04:34:59;30.37;;;13.60;;
7545;SDS011;3814;51.454;12.616;2024-03-08T04:37:28;29.30;;;13.30;;
7545;SDS011;3814;51.454;12.616;2024-03-08T04:39:56;27.60;;;13.35;;
7545;SDS011;3814;51.454;12.616;2024-03-08T04:42:22;30.27;;;13.27;;
7545;SDS011;3814;51.454;12.616;2024-03-08T04:44:47;26.42;;;12.82;;
7545;SDS011;3814;51.454;12.616;2024-03-08T04:47:13;25.65;;;12.98;;
7545;SDS011;3814;51.454;12.616;2024-03-08T04:49:38;29.52;;;13.43;;
7545;SDS011;3814;51.454;12.616;2024-03-08T04:52:04;29.43;;;14.13;;
7545;SDS011;3814;51.454;12.616;2024-03-08T04:54:30;26.25;;;12.63;;
7545;SDS011;3814;51.454;12.616;2024-03-08T04:56:55;24.75;;;11.65;;
7545;SDS011;3814;51.454;12.616;2024-03-08T04:59:21;24.85;;;12.38;;
7545;SDS011;3814;51.454;12.616;2024-03-08T05:01:46;29.00;;;13.02;;
7545;SDS011;3814;51.454;12.616;2024-03-08T05:04:12;25.52;;;12.02;;
7545;SDS011;3814;51.454;12.616;2024-03-08T05:06:37;30.13;;;13.43;;
7545;SDS011;3814;51.454;12.616;2024-03-08T05:09:03;27.23;;;12.07;;
7545;SDS011;3814;51.454;12.616;2024-03-08T05:11:38;26.33;;;13.10;;
7545;SDS011;3814;51.454;12.616;2024-03-08T05:14:04;27.13;;;12.35;;
7545;SDS011;3814;51.454;12.616;2024-03-08T05:16:29;27.05;;;13.00;;
7545;SDS011;3814;51.454;12.616;2024-03-08T05:18:55;30.50;;;14.00;;
7545;SDS011;3814;51.454;12.616;2024-03-08T05:21:21;30.58;;;14.27;;
7545;SDS011;3814;51.454;12.616;2024-03-08T05:23:47;26.83;;;12.93;;
7545;SDS011;3814;51.454;12.616;2024-03-08T05:26:12;25.47;;;13.20;;
7545;SDS011;3814;51.454;12.616;2024-03-08T05:28:38;30.70;;;13.30;;
7545;SDS011;3814;51.454;12.616;2024-03-08T05:31:03;29.47;;;13.73;;
7545;SDS011;3814;51.454;12.616;2024-03-08T05:33:28;27.03;;;12.90;;
7545;SDS011;3814;51.454;12.616;2024-03-08T05:35:54;26.13;;;13.27;;
7545;SDS011;3814;51.454;12.616;2024-03-08T05:38:19;25.73;;;13.23;;
7545;SDS011;3814;51.454;12.616;2024-03-08T05:40:45;29.83;;;14.38;;
7545;SDS011;3814;51.454;12.616;2024-03-08T05:43:10;28.00;;;12.97;;
7545;SDS011;3814;51.454;12.616;2024-03-08T05:45:36;30.75;;;15.10;;
7545;SDS011;3814;51.454;12.616;2024-03-08T05:48:02;29.87;;;13.83;;
7545;SDS011;3814;51.454;12.616;2024-03-08T05:50:27;29.17;;;13.47;;
7545;SDS011;3814;51.454;12.616;2024-03-08T05:52:52;28.47;;;14.53;;
7545;SDS011;3814;51.454;12.616;2024-03-08T05:55:18;28.43;;;14.03;;
7545;SDS011;3814;51.454;12.616;2024-03-08T05:57:43;32.23;;;14.20;;
7545;SDS011;3814;51.454;12.616;2024-03-08T06:00:09;27.63;;;13.35;;
7545;SDS011;3814;51.454;12.616;2024-03-08T06:02:40;29.90;;;14.32;;
7545;SDS011;3814;51.454;12.616;2024-03-08T06:05:07;31.17;;;14.57;;
7545;SDS011;3814;51.454;12.616;2024-03-08T06:07:34;33.88;;;14.10;;
7545;SDS011;3814;51.454;12.616;2024-03-08T06:09:59;34.70;;;14.33;;
7545;SDS011;3814;51.454;12.616;2024-03-08T06:12:25;32.03;;;14.45;;
7545;SDS011;3814;51.454;12.616;2024-03-08T06:14:53;34.45;;;16.27;;
7545;SDS011;3814;51.454;12.616;2024-03-08T06:17:20;30.60;;;13.90;;
7545;SDS011;3814;51.454;12.616;2024-03-08T06:19:50;31.75;;;14.70;;
7545;SDS011;3814;51.454;12.616;2024-03-08T06:22:16;29.63;;;14.65;;
7545;SDS011;3814;51.454;12.616;2024-03-08T06:24:41;36.53;;;16.87;;
7545;SDS011;3814;51.454;12.616;2024-03-08T06:27:06;32.37;;;14.67;;
7545;SDS011;3814;51.454;12.616;2024-03-08T06:29:32;34.75;;;16.35;;
7545;SDS011;3814;51.454;12.616;2024-03-08T06:31:58;34.50;;;14.63;;
7545;SDS011;3814;51.454;12.616;2024-03-08T06:34:24;35.88;;;15.00;;
7545;SDS011;3814;51.454;12.616;2024-03-08T06:36:50;31.63;;;14.77;;
7545;SDS011;3814;51.454;12.616;2024-03-08T06:39:17;30.88;;;14.93;;
7545;SDS011;3814;51.454;12.616;2024-03-08T06:41:42;31.80;;;14.13;;
7545;SDS011;3814;51.454;12.616;2024-03-08T06:44:09;30.98;;;14.98;;
7545;SDS011;3814;51.454;12.616;2024-03-08T06:46:35;35.45;;;15.10;;
7545;SDS011;3814;51.454;12.616;2024-03-08T06:49:00;30.97;;;14.13;;
7545;SDS011;3814;51.454;12.616;2024-03-08T06:51:25;31.03;;;14.67;;
7545;SDS011;3814;51.454;12.616;2024-03-08T06:53:51;30.57;;;15.77;;
7545;SDS011;3814;51.454;12.616;2024-03-08T06:56:18;35.00;;;16.10;;
7545;SDS011;3814;51.454;12.616;2024-03-08T06:58:44;31.75;;;15.23;;
7545;SDS011;3814;51.454;12.616;2024-03-08T07:01:10;30.05;;;14.25;;
7545;SDS011;3814;51.454;12.616;2024-03-08T07:03:39;34.10;;;16.00;;
7545;SDS011;3814;51.454;12.616;2024-03-08T07:06:09;30.98;;;15.63;;
7545;SDS011;3814;51.454;12.616;2024-03-08T07:08:34;32.35;;;14.93;;
7545;SDS011;3814;51.454;12.616;2024-03-08T07:10:59;34.77;;;16.70;;
7545;SDS011;3814;51.454;12.616;2024-03-08T07:13:25;34.15;;;15.82;;
7545;SDS011;3814;51.454;12.616;2024-03-08T07:15:50;36.60;;;16.07;;
7545;SDS011;3814;51.454;12.616;2024-03-08T07:18:17;32.30;;;16.50;;
7545;SDS011;3814;51.454;12.616;2024-03-08T07:20:42;32.50;;;16.83;;
7545;SDS011;3814;51.454;12.616;2024-03-08T07:23:08;33.17;;;16.33;;
7545;SDS011;3814;51.454;12.616;2024-03-08T07:25:34;37.97;;;15.30;;
7545;SDS011;3814;51.454;12.616;2024-03-08T07:28:00;36.13;;;16.02;;
7545;SDS011;3814;51.454;12.616;2024-03-08T07:30:26;34.90;;;15.93;;
7545;SDS011;3814;51.454;12.616;2024-03-08T07:33:09;36.55;;;16.85;;
7545;SDS011;3814;51.454;12.616;2024-03-08T07:35:38;33.72;;;16.52;;
7545;SDS011;3814;51.454;12.616;2024-03-08T07:40:36;34.80;;;16.98;;
7545;SDS011;3814;51.454;12.616;2024-03-08T07:43:08;38.50;;;17.10;;
7545;SDS011;3814;51.454;12.616;2024-03-08T07:45:35;38.47;;;16.80;;
7545;SDS011;3814;51.454;12.616;2024-03-08T07:48:00;40.35;;;19.30;;
7545;SDS011;3814;51.454;12.616;2024-03-08T07:50:27;41.08;;;17.55;;
7545;SDS011;3814;51.454;12.616;2024-03-08T07:52:53;35.92;;;16.98;;
7545;SDS011;3814;51.454;12.616;2024-03-08T07:55:19;34.95;;;17.35;;
7545;SDS011;3814;51.454;12.616;2024-03-08T07:57:45;32.70;;;15.93;;
7545;SDS011;3814;51.454;12.616;2024-03-08T08:00:10;32.83;;;14.83;;
7545;SDS011;3814;51.454;12.616;2024-03-08T08:02:36;31.77;;;16.02;;
7545;SDS011;3814;51.454;12.616;2024-03-08T08:05:01;31.23;;;15.17;;
7545;SDS011;3814;51.454;12.616;2024-03-08T08:07:27;37.08;;;17.85;;
7545;SDS011;3814;51.454;12.616;2024-03-08T08:09:52;33.13;;;15.98;;
7545;SDS011;3814;51.454;12.616;2024-03-08T08:12:18;34.72;;;17.40;;
7545;SDS011;3814;51.454;12.616;2024-03-08T08:14:43;34.50;;;16.90;;
7545;SDS011;3814;51.454;12.616;2024-03-08T08:17:08;37.00;;;18.07;;
7545;SDS011;3814;51.454;12.616;2024-03-08T08:19:34;32.27;;;16.67;;
7545;SDS011;3814;51.454;12.616;2024-03-08T08:22:00;31.48;;;16.85;;
7545;SDS011;3814;51.454;12.616;2024-03-08T08:24:27;33.13;;;16.20;;
7545;SDS011;3814;51.454;12.616;2024-03-08T08:26:52;33.95;;;16.80;;
7545;SDS011;3814;51.454;12.616;2024-03-08T08:29:17;36.43;;;17.17;;
7545;SDS011;3814;51.454;12.616;2024-03-08T08:31:43;31.80;;;17.50;;
7545;SDS011;3814;51.454;12.616;2024-03-08T08:34:11;33.60;;;17.50;;
7545;SDS011;3814;51.454;12.616;2024-03-08T08:36:37;29.95;;;15.60;;
7545;SDS011;3814;51.454;12.616;2024-03-08T08:39:03;31.15;;;16.38;;
7545;SDS011;3814;51.454;12.616;2024-03-08T08:41:29;28.88;;;15.90;;
7545;SDS011;3814;51.454;12.616;2024-03-08T08:43:54;33.13;;;16.83;;
7545;SDS011;3814;51.454;12.616;2024-03-08T08:46:19;33.13;;;16.48;;
7545;SDS011;3814;51.454;12.616;2024-03-08T08:48:46;34.63;;;17.75;;
7545;SDS011;3814;51.454;12.616;2024-03-08T08:51:11;32.67;;;15.75;;
7545;SDS011;3814;51.454;12.616;2024-03-08T08:53:37;30.13;;;16.05;;
7545;SDS011;3814;51.454;12.616;2024-03-08T08:56:07;32.55;;;16.30;;
7545;SDS011;3814;51.454;12.616;2024-03-08T08:58:33;34.30;;;17.70;;
7545;SDS011;3814;51.454;12.616;2024-03-08T09:00:58;33.25;;;16.60;;
7545;SDS011;3814;51.454;12.616;2024-03-08T09:03:24;33.08;;;16.13;;
7545;SDS011;3814;51.454;12.616;2024-03-08T09:05:52;35.30;;;17.33;;
7545;SDS011;3814;51.454;12.616;2024-03-08T09:08:17;30.40;;;16.03;;
7545;SDS011;3814;51.454;12.616;2024-03-08T09:10:42;36.13;;;18.10;;
7545;SDS011;3814;51.454;12.616;2024-03-08T09:13:08;30.13;;;16.45;;
7545;SDS011;3814;51.454;12.616;2024-03-08T09:15:35;32.47;;;17.05;;
7545;SDS011;3814;51.454;12.616;2024-03-08T09:18:01;32.10;;;16.48;;
7545;SDS011;3814;51.454;12.616;2024-03-08T09:20:26;31.57;;;15.93;;
7545;SDS011;3814;51.454;12.616;2024-03-08T09:22:51;32.38;;;15.68;;
7545;SDS011;3814;51.454;12.616;2024-03-08T09:25:17;31.87;;;16.67;;
7545;SDS011;3814;51.454;12.616;2024-03-08T09:27:42;35.93;;;18.27;;
7545;SDS011;3814;51.454;12.616;2024-03-08T09:30:07;30.60;;;17.10;;
7545;SDS011;3814;51.454;12.616;2024-03-08T09:32:33;31.05;;;16.38;;
7545;SDS011;3814;51.454;12.616;2024-03-08T09:34:58;29.80;;;16.13;;
7545;SDS011;3814;51.454;12.616;2024-03-08T09:37:23;34.40;;;17.37;;
7545;SDS011;3814;51.454;12.616;2024-03-08T09:39:49;36.50;;;17.40;;
7545;SDS011;3814;51.454;12.616;2024-03-08T09:42:15;31.00;;;16.20;;
7545;SDS011;3814;51.454;12.616;2024-03-08T09:44:44;31.60;;;15.82;;
7545;SDS011;3814;51.454;12.616;2024-03-08T09:49:38;28.63;;;15.77;;
7545;SDS011;3814;51.454;12.616;2024-03-08T09:52:04;30.50;;;16.17;;
7545;SDS011;3814;51.454;12.616;2024-03-08T09:54:30;32.88;;;15.90;;
7545;SDS011;3814;51.454;12.616;2024-03-08T09:56:55;29.63;;;16.23;;
7545;SDS011;3814;51.454;12.616;2024-03-08T09:59:20;32.80;;;16.53;;
7545;SDS011;3814;51.454;12.616;2024-03-08T10:01:51;37.38;;;17.60;;
7545;SDS011;3814;51.454;12.616;2024-03-08T10:04:17;31.27;;;16.93;;
7545;SDS011;3814;51.454;12.616;2024-03-08T10:06:43;32.83;;;16.30;;
7545;SDS011;3814;51.454;12.616;2024-03-08T10:09:08;34.40;;;16.67;;
7545;SDS011;3814;51.454;12.616;2024-03-08T10:11:35;30.42;;;15.80;;
7545;SDS011;3814;51.454;12.616;2024-03-08T10:14:00;29.87;;;14.50;;
7545;SDS011;3814;51.454;12.616;2024-03-08T10:16:29;34.72;;;15.55;;
7545;SDS011;3814;51.454;12.616;2024-03-08T10:18:58;27.85;;;14.02;;
7545;SDS011;3814;51.454;12.616;2024-03-08T10:21:25;29.13;;;14.88;;
7545;SDS011;3814;51.454;12.616;2024-03-08T10:23:50;29.43;;;14.73;;
7545;SDS011;3814;51.454;12.616;2024-03-08T10:26:17;27.38;;;13.23;;
7545;SDS011;3814;51.454;12.616;2024-03-08T10:28:45;32.72;;;15.38;;
7545;SDS011;3814;51.454;12.616;2024-03-08T10:31:18;31.63;;;15.27;;
7545;SDS011;3814;51.454;12.616;2024-03-08T10:33:44;26.95;;;14.20;;
7545;SDS011;3814;51.454;12.616;2024-03-08T10:36:14;28.70;;;15.07;;
7545;SDS011;3814;51.454;12.616;2024-03-08T10:38:41;26.23;;;14.55;;
7545;SDS011;3814;51.454;12.616;2024-03-08T10:41:08;27.75;;;14.80;;
7545;SDS011;3814;51.454;12.616;2024-03-08T10:43:40;27.85;;;14.77;;
7545;SDS011;3814;51.454;12.616;2024-03-08T10:48:53;27.92;;;13.82;;
7545;SDS011;3814;51.454;12.616;2024-03-08T10:51:21;27.83;;;14.95;;
7545;SDS011;3814;51.454;12.616;2024-03-08T10:53:46;29.90;;;16.48;;
7545;SDS011;3814;51.454;12.616;2024-03-08T10:56:13;27.73;;;14.32;;
7545;SDS011;3814;51.454;12.616;2024-03-08T10:58:39;28.80;;;13.82;;
7545;SDS011;3814;51.454;12.616;2024-03-08T11:01:05;28.08;;;14.52;;
7545;SDS011;3814;51.454;12.616;2024-03-08T11:06:06;27.42;;;14.15;;
7545;SDS011;3814;51.454;12.616;2024-03-08T11:08:33;23.20;;;12.57;;
7545;SDS011;3814;51.454;12.616;2024-03-08T11:10:58;26.35;;;13.82;;
7545;SDS011;3814;51.454;12.616;2024-03-08T11:13:37;29.13;;;13.95;;
7545;SDS011;3814;51.454;12.616;2024-03-08T11:16:08;26.52;;;13.68;;
7545;SDS011;3814;51.454;12.616;2024-03-08T11:21:03;24.40;;;13.23;;
7545;SDS011;3814;51.454;12.616;2024-03-08T11:23:32;26.98;;;13.68;;
7545;SDS011;3814;51.454;12.616;2024-03-08T11:25:58;21.75;;;13.13;;
7545;SDS011;3814;51.454;12.616;2024-03-08T11:28:24;30.77;;;14.68;;
7545;SDS011;3814;51.454;12.616;2024-03-08T11:33:23;27.25;;;14.98;;
7545;SDS011;3814;51.454;12.616;2024-03-08T11:35:50;27.70;;;14.10;;
7545;SDS011;3814;51.454;12.616;2024-03-08T11:38:15;24.75;;;14.07;;
7545;SDS011;3814;51.454;12.616;2024-03-08T11:40:41;26.35;;;14.77;;
7545;SDS011;3814;51.454;12.616;2024-03-08T11:43:07;25.67;;;14.60;;
7545;SDS011;3814;51.454;12.616;2024-03-08T11:45:34;28.33;;;14.90;;
7545;SDS011;3814;51.454;12.616;2024-03-08T11:48:01;27.55;;;14.27;;
7545;SDS011;3814;51.454;12.616;2024-03-08T11:50:28;26.67;;;14.20;;
7545;SDS011;3814;51.454;12.616;2024-03-08T11:52:59;28.27;;;14.57;;
7545;SDS011;3814;51.454;12.616;2024-03-08T11:55:25;26.38;;;14.13;;
7545;SDS011;3814;51.454;12.616;2024-03-08T11:57:58;30.43;;;14.87;;
7545;SDS011;3814;51.454;12.616;2024-03-08T12:00:24;27.38;;;15.45;;
7545;SDS011;3814;51.454;12.616;2024-03-08T12:03:04;27.25;;;15.27;;
7545;SDS011;3814;51.454;12.616;2024-03-08T12:05:31;29.73;;;15.93;;
7545;SDS011;3814;51.454;12.616;2024-03-08T12:07:58;25.27;;;13.98;;
7545;SDS011;3814;51.454;12.616;2024-03-08T12:10:23;29.00;;;15.13;;
7545;SDS011;3814;51.454;12.616;2024-03-08T12:12:51;26.02;;;14.55;;
7545;SDS011;3814;51.454;12.616;2024-03-08T12:15:18;29.98;;;13.95;;
7545;SDS011;3814;51.454;12.616;2024-03-08T12:17:44;30.23;;;15.85;;
7545;SDS011;3814;51.454;12.616;2024-03-08T12:20:25;31.02;;;14.82;;
7545;SDS011;3814;51.454;12.616;2024-03-08T12:22:55;31.98;;;15.25;;
7545;SDS011;3814;51.454;12.616;2024-03-08T12:25:32;31.25;;;14.75;;
7545;SDS011;3814;51.454;12.616;2024-03-08T12:28:08;30.20;;;14.25;;
7545;SDS011;3814;51.454;12.616;2024-03-08T12:30:48;26.95;;;14.20;;
7545;SDS011;3814;51.454;12.616;2024-03-08T12:33:19;26.85;;;13.43;;
7545;SDS011;3814;51.454;12.616;2024-03-08T12:35:51;28.07;;;15.10;;
7545;SDS011;3814;51.454;12.616;2024-03-08T12:38:23;27.55;;;14.10;;
7545;SDS011;3814;51.454;12.616;2024-03-08T12:40:50;27.38;;;14.32;;
7545;SDS011;3814;51.454;12.616;2024-03-08T12:43:15;27.08;;;14.25;;
7545;SDS011;3814;51.454;12.616;2024-03-08T12:45:41;24.90;;;13.63;;
7545;SDS011;3814;51.454;12.616;2024-03-08T12:48:12;28.80;;;14.18;;
7545;SDS011;3814;51.454;12.616;2024-03-08T12:50:39;26.77;;;13.95;;
7545;SDS011;3814;51.454;12.616;2024-03-08T12:53:04;30.87;;;14.40;;
7545;SDS011;3814;51.454;12.616;2024-03-08T12:55:29;24.70;;;13.07;;
7545;SDS011;3814;51.454;12.616;2024-03-08T12:57:54;25.17;;;12.90;;
7545;SDS011;3814;51.454;12.616;2024-03-08T13:00:20;27.70;;;14.00;;
7545;SDS011;3814;51.454;12.616;2024-03-08T13:02:45;22.73;;;12.97;;
7545;SDS011;3814;51.454;12.616;2024-03-08T13:05:11;26.17;;;13.63;;
7545;SDS011;3814;51.454;12.616;2024-03-08T13:07:39;26.00;;;13.35;;
7545;SDS011;3814;51.454;12.616;2024-03-08T13:10:04;25.33;;;13.98;;
7545;SDS011;3814;51.454;12.616;2024-03-08T13:12:31;24.52;;;13.13;;
7545;SDS011;3814;51.454;12.616;2024-03-08T13:14:56;25.00;;;12.70;;
7545;SDS011;3814;51.454;12.616;2024-03-08T13:17:21;24.33;;;12.47;;
7545;SDS011;3814;51.454;12.616;2024-03-08T13:19:47;25.33;;;12.75;;
7545;SDS011;3814;51.454;12.616;2024-03-08T13:22:12;22.80;;;12.33;;
7545;SDS011;3814;51.454;12.616;2024-03-08T13:24:41;25.10;;;12.87;;
7545;SDS011;3814;51.454;12.616;2024-03-08T13:27:07;26.33;;;13.77;;
7545;SDS011;3814;51.454;12.616;2024-03-08T13:29:44;21.75;;;12.63;;
7545;SDS011;3814;51.454;12.616;2024-03-08T13:32:13;25.00;;;13.02;;
7545;SDS011;3814;51.454;12.616;2024-03-08T13:34:42;22.17;;;11.95;;
7545;SDS011;3814;51.454;12.616;2024-03-08T13:37:09;21.30;;;11.40;;
7545;SDS011;3814;51.454;12.616;2024-03-08T13:39:36;24.08;;;12.75;;
7545;SDS011;3814;51.454;12.616;2024-03-08T13:42:11;24.25;;;12.95;;
7545;SDS011;3814;51.454;12.616;2024-03-08T13:44:38;24.10;;;13.20;;
7545;SDS011;3814;51.454;12.616;2024-03-08T13:47:04;26.00;;;12.75;;
7545;SDS011;3814;51.454;12.616;2024-03-08T13:49:30;25.45;;;13.07;;
7545;SDS011;3814;51.454;12.616;2024-03-08T13:51:55;23.10;;;12.68;;
7545;SDS011;3814;51.454;12.616;2024-03-08T13:54:23;23.52;;;12.10;;
7545;SDS011;3814;51.454;12.616;2024-03-08T13:56:48;24.07;;;12.60;;
7545;SDS011;3814;51.454;12.616;2024-03-08T13:59:14;23.38;;;12.73;;
7545;SDS011;3814;51.454;12.616;2024-03-08T14:01:40;24.47;;;12.33;;
7545;SDS011;3814;51.454;12.616;2024-03-08T14:04:05;21.80;;;11.93;;
7545;SDS011;3814;51.454;12.616;2024-03-08T14:06:30;24.17;;;12.53;;
7545;SDS011;3814;51.454;12.616;2024-03-08T14:08:55;21.57;;;11.63;;
7545;SDS011;3814;51.454;12.616;2024-03-08T14:11:22;23.42;;;12.65;;
7545;SDS011;3814;51.454;12.616;2024-03-08T14:13:48;24.95;;;12.95;;
7545;SDS011;3814;51.454;12.616;2024-03-08T14:16:14;35.10;;;14.00;;
7545;SDS011;3814;51.454;12.616;2024-03-08T14:18:42;25.52;;;12.95;;
7545;SDS011;3814;51.454;12.616;2024-03-08T14:21:08;24.87;;;12.30;;
7545;SDS011;3814;51.454;12.616;2024-03-08T14:23:33;24.63;;;12.77;;
7545;SDS011;3814;51.454;12.616;2024-03-08T14:25:59;22.90;;;12.38;;
7545;SDS011;3814;51.454;12.616;2024-03-08T14:28:25;21.20;;;10.93;;
7545;SDS011;3814;51.454;12.616;2024-03-08T14:30:52;23.27;;;12.73;;
7545;SDS011;3814;51.454;12.616;2024-03-08T14:33:20;25.05;;;11.63;;
7545;SDS011;3814;51.454;12.616;2024-03-08T14:35:45;25.17;;;12.43;;
7545;SDS011;3814;51.454;12.616;2024-03-08T14:38:12;21.40;;;11.88;;
7545;SDS011;3814;51.454;12.616;2024-03-08T14:40:38;21.63;;;10.95;;
7545;SDS011;3814;51.454;12.616;2024-03-08T14:43:03;26.95;;;11.98;;
7545;SDS011;3814;51.454;12.616;2024-03-08T14:45:29;23.30;;;11.63;;